createdAt,value
2019-01-29T00:01:23.203Z,97476.47
2019-01-29T00:03:53.398Z,97465.75
2019-01-29T00:06:22.265Z,97465.75
2019-01-29T00:08:49.920Z,97481.30
2019-01-29T00:11:18.209Z,97485.80
2019-01-29T00:13:45.976Z,97484.47
2019-01-29T00:16:14.876Z,97484.47
2019-01-29T00:18:42.544Z,97483.25
2019-01-29T00:21:11.517Z,97475.09
2019-01-29T00:23:40.365Z,97486.98
2019-01-29T00:26:08.785Z,97486.98
2019-01-29T00:28:36.179Z,97484.59
2019-01-29T00:31:06.613Z,97476.61
2019-01-29T00:33:34.272Z,97491.28
2019-01-29T00:36:02.896Z,97485.66
2019-01-29T00:38:31.373Z,97489.70
2019-01-29T00:40:59.290Z,97490.75
2019-01-29T00:43:27.811Z,97502.25
2019-01-29T00:45:55.578Z,97502.25
2019-01-29T00:48:24.695Z,97503.58
2019-01-29T00:50:52.599Z,97504.22
2019-01-29T00:53:21.386Z,97502.59
2019-01-29T00:55:49.462Z,97505.19
2019-01-29T00:58:18.773Z,97504.44
2019-01-29T01:00:47.468Z,97513.51
2019-01-29T01:03:18.580Z,97504.22
2019-01-29T01:05:46.469Z,97519.94
2019-01-29T01:08:15.487Z,97507.88
2019-01-29T01:10:43.790Z,97516.17
2019-01-29T01:13:13.894Z,97518.07
2019-01-29T01:15:42.946Z,97518.81
2019-01-29T01:19:54.216Z,97504.33
2019-01-29T01:22:24.215Z,97504.33
2019-01-29T01:24:53.615Z,97524.98
2019-01-29T01:27:21.529Z,97524.98
2019-01-29T01:29:51.257Z,97530.61
2019-01-29T01:32:19.779Z,97532.45
2019-01-29T01:34:48.139Z,97540.47
2019-01-29T01:37:15.907Z,97536.00
2019-01-29T01:39:45.939Z,97547.48
2019-01-29T01:42:14.908Z,97550.66
2019-01-29T01:44:43.740Z,97537.80
2019-01-29T01:47:15.867Z,97548.30
2019-01-29T01:49:45.452Z,97548.30
2019-01-29T01:52:14.996Z,97553.92
2019-01-29T01:54:43.529Z,97560.30
2019-01-29T01:57:13.670Z,97560.30
2019-01-29T01:59:42.845Z,97564.48
2019-01-29T02:02:12.541Z,97571.72
2019-01-29T02:04:40.545Z,97574.63
2019-01-29T02:07:10.617Z,97579.21
2019-01-29T02:09:38.509Z,97582.97
2019-01-29T02:12:06.418Z,97582.97
2019-01-29T02:14:35.382Z,97582.73
2019-01-29T02:17:03.815Z,97589.71
2019-01-29T02:19:33.516Z,97582.17
2019-01-29T02:22:03.440Z,97585.17
2019-01-29T02:24:31.837Z,97585.17
2019-01-29T02:27:01.130Z,97589.18
2019-01-29T02:29:29.409Z,97582.56
2019-01-29T02:31:58.260Z,97588.89
2019-01-29T02:34:26.898Z,97586.75
2019-01-29T02:36:56.095Z,97588.38
2019-01-29T02:39:24.577Z,97589.47
2019-01-29T02:41:53.517Z,97591.33
2019-01-29T02:44:23.181Z,97590.39
2019-01-29T02:46:52.495Z,97601.19
2019-01-29T02:49:22.637Z,97601.19
2019-01-29T02:51:51.065Z,97598.34
2019-01-29T02:54:19.846Z,97595.90
2019-01-29T02:56:48.674Z,97600.96
2019-01-29T02:59:17.830Z,97589.47
2019-01-29T03:01:46.533Z,97589.47
2019-01-29T03:04:14.907Z,97589.86
2019-01-29T03:06:43.960Z,97589.86
2019-01-29T03:09:13.421Z,97582.15
2019-01-29T03:11:41.505Z,97587.67
2019-01-29T03:14:11.842Z,97585.06
2019-01-29T03:16:41.276Z,97568.41
2019-01-29T03:19:09.798Z,97568.41
2019-01-29T03:21:38.991Z,97594.63
2019-01-29T03:24:09.563Z,97594.39
2019-01-29T03:26:38.496Z,97595.48
2019-01-29T03:29:06.857Z,97612.36
2019-01-29T03:31:35.447Z,97596.27
2019-01-29T03:34:03.669Z,97596.27
2019-01-29T03:36:31.562Z,97596.27
2019-01-29T03:39:00.078Z,97616.82
2019-01-29T03:41:27.694Z,97620.06
2019-01-29T03:45:15.567Z,97618.97
2019-01-29T03:47:43.848Z,97631.02
2019-01-29T03:50:14.536Z,97624.09
2019-01-29T03:52:45.683Z,97614.42
2019-01-29T03:55:14.823Z,97630.05
2019-01-29T03:57:42.923Z,97620.00
2019-01-29T04:00:21.781Z,97620.00
2019-01-29T04:02:49.385Z,97633.22
2019-01-29T04:05:19.197Z,97629.80
2019-01-29T04:07:47.093Z,97640.98
2019-01-29T04:10:16.221Z,97643.31
2019-01-29T04:12:45.479Z,97643.31
2019-01-29T04:15:15.459Z,97644.42
2019-01-29T04:17:44.764Z,97644.70
2019-01-29T04:20:16.562Z,97639.65
2019-01-29T04:22:46.071Z,97641.80
2019-01-29T04:25:16.261Z,97646.37
2019-01-29T04:27:45.724Z,97652.22
2019-01-29T04:30:20.325Z,97654.89
2019-01-29T04:32:48.653Z,97651.70
2019-01-29T04:35:18.023Z,97651.70
2019-01-29T04:37:46.643Z,97644.80
2019-01-29T04:40:18.681Z,97650.62
2019-01-29T04:42:46.342Z,97651.13
2019-01-29T04:45:16.919Z,97656.47
2019-01-29T04:47:45.452Z,97658.04
2019-01-29T04:50:17.567Z,97658.04
2019-01-29T04:52:45.445Z,97652.47
2019-01-29T04:55:15.531Z,97649.28
2019-01-29T04:57:43.261Z,97650.89
2019-01-29T05:00:15.919Z,97658.13
2019-01-29T05:02:44.447Z,97672.25
2019-01-29T05:05:13.258Z,97668.52
2019-01-29T05:07:43.555Z,97668.52
2019-01-29T05:10:14.024Z,97677.28
2019-01-29T05:12:44.965Z,97671.13
2019-01-29T05:15:15.750Z,97678.33
2019-01-29T05:17:44.754Z,97678.33
2019-01-29T05:20:20.315Z,97683.42
2019-01-29T05:22:48.302Z,97691.65
2019-01-29T05:25:18.435Z,97691.65
2019-01-29T05:27:48.358Z,97693.70
2019-01-29T05:30:21.201Z,97697.14
2019-01-29T05:32:49.546Z,97697.14
2019-01-29T05:35:20.861Z,97699.03
2019-01-29T05:37:49.971Z,97701.41
2019-01-29T05:40:20.071Z,97701.41
2019-01-29T05:42:48.434Z,97703.80
2019-01-29T05:45:18.744Z,97714.47
2019-01-29T05:47:47.405Z,97714.47
2019-01-29T05:50:15.899Z,97710.23
2019-01-29T05:52:45.721Z,97713.14
2019-01-29T05:55:15.843Z,97705.85
2019-01-29T05:57:46.412Z,97705.85
2019-01-29T06:00:26.844Z,97722.80
2019-01-29T06:02:54.989Z,97719.08
2019-01-29T06:05:24.742Z,97723.89
2019-01-29T06:07:53.529Z,97728.94
2019-01-29T06:10:21.515Z,97728.94
2019-01-29T06:12:54.253Z,97731.64
2019-01-29T06:15:23.819Z,97725.80
2019-01-29T06:17:52.897Z,97710.90
2019-01-29T06:20:23.349Z,97710.90
2019-01-29T06:22:52.546Z,97718.59
2019-01-29T06:25:21.864Z,97705.63
2019-01-29T06:27:51.552Z,97723.89
2019-01-29T06:30:20.926Z,97723.89
2019-01-29T06:32:48.829Z,97705.91
2019-01-29T06:35:17.670Z,97727.31
2019-01-29T06:37:45.813Z,97720.69
2019-01-29T06:40:19.808Z,97720.69
2019-01-29T06:42:48.052Z,97732.70
2019-01-29T06:45:16.662Z,97730.04
2019-01-29T06:47:44.557Z,97730.04
2019-01-29T06:50:16.362Z,97730.37
2019-01-29T06:52:45.965Z,97730.37
2019-01-29T06:55:16.920Z,97730.89
2019-01-29T06:57:44.899Z,97730.89
2019-01-29T07:00:17.272Z,97719.01
2019-01-29T07:02:44.980Z,97719.01
2019-01-29T07:05:13.600Z,97738.33
2019-01-29T07:07:42.766Z,97735.45
2019-01-29T07:10:12.932Z,97738.61
2019-01-29T07:12:43.289Z,97743.94
2019-01-29T07:15:50.971Z,97743.94
2019-01-29T07:18:35.591Z,97752.22
2019-01-29T07:21:06.955Z,97751.80
2019-01-29T07:23:34.989Z,97750.41
2019-01-29T07:26:04.681Z,97757.37
2019-01-29T07:28:32.527Z,97757.37
2019-01-29T07:31:01.921Z,97751.30
2019-01-29T07:33:30.550Z,97750.16
2019-01-29T07:35:58.686Z,97750.16
2019-01-29T07:38:27.550Z,97756.22
2019-01-29T07:40:55.663Z,97753.27
2019-01-29T07:43:24.700Z,97749.51
2019-01-29T07:45:54.586Z,97742.64
2019-01-29T07:48:23.516Z,97738.20
2019-01-29T07:50:51.903Z,97738.20
2019-01-29T07:53:21.030Z,97747.13
2019-01-29T07:55:50.516Z,97747.13
2019-01-29T07:58:19.090Z,97748.22
2019-01-29T08:00:48.117Z,97755.13
2019-01-29T08:03:16.682Z,97748.75
2019-01-29T08:05:45.593Z,97751.69
2019-01-29T08:08:14.274Z,97750.35
2019-01-29T08:10:43.601Z,97745.80
2019-01-29T08:13:11.687Z,97750.08
2019-01-29T08:15:40.798Z,97745.03
2019-01-29T08:18:09.273Z,97745.03
2019-01-29T08:20:37.893Z,97744.73
2019-01-29T08:23:07.274Z,97733.08
2019-01-29T08:25:36.297Z,97733.08
2019-01-29T08:28:06.115Z,97748.45
2019-01-29T08:30:34.923Z,97738.31
2019-01-29T08:33:03.479Z,97736.70
2019-01-29T08:35:31.664Z,97736.70
2019-01-29T08:38:00.210Z,97744.13
2019-01-29T08:40:29.794Z,97742.84
2019-01-29T08:42:58.180Z,97729.36
2019-01-29T08:45:29.386Z,97734.16
2019-01-29T08:47:58.715Z,97734.16
2019-01-29T08:50:27.852Z,97740.70
2019-01-29T08:52:57.767Z,97745.52
2019-01-29T08:55:29.800Z,97746.64
2019-01-29T08:57:58.793Z,97746.64
2019-01-29T09:00:27.745Z,97729.64
2019-01-29T09:02:57.371Z,97744.75
2019-01-29T09:05:25.481Z,97744.75
2019-01-29T09:07:55.787Z,97748.26
2019-01-29T09:10:24.786Z,97733.64
2019-01-29T09:12:53.887Z,97740.18
2019-01-29T09:15:23.336Z,97740.02
2019-01-29T09:17:51.892Z,97740.02
2019-01-29T09:20:20.855Z,97724.08
2019-01-29T09:22:50.002Z,97733.03
2019-01-29T09:25:22.426Z,97730.85
2019-01-29T09:27:50.741Z,97730.85
2019-01-29T09:30:19.666Z,97722.72
2019-01-29T09:32:48.803Z,97722.72
2019-01-29T09:35:17.779Z,97718.61
2019-01-29T09:37:46.828Z,97718.61
2019-01-29T09:40:17.910Z,97731.23
2019-01-29T09:42:47.799Z,97731.23
2019-01-29T09:45:20.068Z,97719.56
2019-01-29T09:47:49.804Z,97719.56
2019-01-29T09:50:22.389Z,97721.58
2019-01-29T09:52:51.408Z,97721.58
2019-01-29T09:55:28.953Z,97712.28
2019-01-29T10:00:38.940Z,97712.17
2019-01-29T10:03:07.345Z,97712.70
2019-01-29T10:05:38.411Z,97705.42
2019-01-29T10:08:07.345Z,97705.42
2019-01-29T10:10:35.785Z,97703.80
2019-01-29T10:27:44.701Z,97685.83
2019-01-29T10:30:12.698Z,97685.83
2019-01-29T10:32:43.157Z,97684.34
2019-01-29T10:35:15.823Z,97675.83
2019-01-29T10:37:46.739Z,97660.57
2019-01-29T10:40:16.739Z,97660.57
2019-01-29T10:42:45.990Z,97644.44
2019-01-29T10:45:16.929Z,97654.48
2019-01-29T10:48:05.846Z,97649.66
2019-01-29T10:50:34.965Z,97629.72
2019-01-29T10:53:06.903Z,97629.72
2019-01-29T10:55:36.665Z,97629.67
2019-01-29T10:58:26.324Z,97613.02
2019-01-29T11:00:54.804Z,97626.72
2019-01-29T11:03:26.041Z,97619.75
2019-01-29T11:05:55.307Z,97612.79
2019-01-29T11:08:24.795Z,97612.79
2019-01-29T11:10:53.308Z,97616.48
2019-01-29T11:13:21.667Z,97603.45
2019-01-29T11:15:51.347Z,97581.92
2019-01-29T11:18:19.786Z,97581.92
2019-01-29T11:20:50.044Z,97595.27
2019-01-29T11:23:17.286Z,97591.53
2019-01-29T11:25:46.428Z,97579.23
2019-01-29T11:28:15.030Z,97579.23
2019-01-29T11:30:44.795Z,97558.02
2019-01-29T11:33:14.358Z,97558.02
2019-01-29T11:35:45.773Z,97574.31
2019-01-29T11:38:14.784Z,97550.16
2019-01-29T11:40:44.472Z,97556.38
2019-01-29T11:43:11.843Z,97556.38
2019-01-29T11:47:06.509Z,97554.22
2019-01-29T11:49:36.722Z,97538.97
2019-01-29T11:52:06.057Z,97538.97
2019-01-29T11:54:35.454Z,97542.17
2019-01-29T11:59:48.659Z,97525.77
2019-01-29T12:02:17.999Z,97508.09
2019-01-29T12:04:47.776Z,97497.47
2019-01-29T12:07:16.900Z,97498.24
2019-01-29T12:09:44.709Z,97490.69
2019-01-29T12:12:14.872Z,97499.91
2019-01-29T12:14:44.585Z,97493.15
2019-01-29T12:17:15.011Z,97496.05
2019-01-29T12:19:44.842Z,97495.11
2019-01-29T12:27:28.554Z,97483.06
2019-01-29T12:31:11.049Z,97477.72
2019-01-29T12:33:41.401Z,97462.66
2019-01-29T12:36:10.943Z,97462.66
2019-01-29T12:38:41.752Z,97468.38
2019-01-29T12:41:10.731Z,97468.38
2019-01-29T12:43:39.742Z,97462.74
2019-01-29T12:46:07.818Z,97451.27
2019-01-29T12:48:57.688Z,97447.32
2019-01-29T12:51:49.046Z,97447.32
2019-01-29T12:54:20.307Z,97435.04
2019-01-29T12:56:49.368Z,97435.04
2019-01-29T12:59:19.718Z,97431.90
2019-01-29T13:01:49.734Z,97430.50
2019-01-29T13:04:18.826Z,97430.50
2019-01-29T13:06:48.510Z,97423.59
2019-01-29T13:09:16.929Z,97417.28
2019-01-29T13:11:47.746Z,97415.88
2019-01-29T13:14:17.050Z,97415.88
2019-01-29T13:16:46.884Z,97407.64
2019-01-29T13:19:15.668Z,97397.83
2019-01-29T13:21:45.356Z,97397.83
2019-01-29T13:24:14.388Z,97404.91
2019-01-29T13:26:44.339Z,97396.39
2019-01-29T13:29:15.635Z,97391.56
2019-01-29T13:31:44.957Z,97391.56
2019-01-29T13:34:13.764Z,97383.28
2019-01-29T13:36:43.772Z,97373.23
2019-01-29T13:39:13.887Z,97373.23
2019-01-29T13:53:17.530Z,97352.11
2019-01-29T13:55:46.043Z,97352.11
2019-01-29T13:58:16.554Z,97333.95
2019-01-29T14:00:45.733Z,97344.45
2019-01-29T14:03:18.658Z,97348.55
2019-01-29T14:05:48.682Z,97344.30
2019-01-29T14:08:18.771Z,97344.30
2019-01-29T14:10:47.762Z,97338.30
2019-01-29T14:13:17.742Z,97338.30
2019-01-29T14:15:57.615Z,97343.37
2019-01-29T14:18:29.823Z,97336.46
2019-01-29T14:21:00.150Z,97328.99
2019-01-29T14:23:29.090Z,97328.99
2019-01-29T14:25:57.024Z,97327.43
2019-01-29T14:28:28.004Z,97287.34
2019-01-29T14:30:56.685Z,97287.34
2019-01-29T14:33:25.383Z,97318.21
2019-01-29T14:35:54.004Z,97319.11
2019-01-29T14:39:28.754Z,97319.11
2019-01-29T14:41:57.711Z,97311.91
2019-01-29T14:44:37.592Z,97295.73
2019-01-29T14:47:06.765Z,97294.66
2019-01-29T14:49:36.230Z,97283.33
2019-01-29T14:52:04.974Z,97283.33
2019-01-29T14:54:34.030Z,97281.92
2019-01-29T14:57:01.885Z,97281.92
2019-01-29T14:59:32.020Z,97289.47
2019-01-29T15:02:00.654Z,97278.69
2019-01-29T15:04:28.930Z,97286.80
2019-01-29T15:06:57.662Z,97286.80
2019-01-29T15:09:26.321Z,97283.03
2019-01-29T15:11:55.605Z,97284.56
2019-01-29T15:14:26.658Z,97261.58
2019-01-29T15:17:14.914Z,97261.58
2019-01-29T15:19:43.548Z,97254.30
2019-01-29T15:22:12.832Z,97254.30
2019-01-29T15:24:42.077Z,97243.91
2019-01-29T15:27:10.586Z,97243.91
2019-01-29T15:29:40.380Z,97256.47
2019-01-29T15:32:09.043Z,97251.01
2019-01-29T15:34:37.735Z,97251.01
2019-01-29T15:37:06.080Z,97234.16
2019-01-29T15:39:36.024Z,97235.03
2019-01-29T15:42:04.587Z,97222.80
2019-01-29T15:44:31.893Z,97222.80
2019-01-29T15:47:02.788Z,97234.00
2019-01-29T15:51:42.709Z,97221.16
2019-01-29T15:54:12.216Z,97215.73
2019-01-29T15:56:42.502Z,97194.86
2019-01-29T15:59:11.035Z,97194.86
2019-01-29T16:01:41.841Z,97203.56
2019-01-29T16:04:11.173Z,97203.56
2019-01-29T16:06:40.785Z,97191.41
2019-01-29T16:09:11.644Z,97191.41
2019-01-29T16:11:40.679Z,97190.91
2019-01-29T16:14:10.013Z,97183.50
2019-01-29T16:16:40.795Z,97177.08
2019-01-29T16:19:11.084Z,97167.20
2019-01-29T16:21:40.971Z,97161.77
2019-01-29T16:24:11.675Z,97161.77
2019-01-29T16:26:42.756Z,97153.99
2019-01-29T16:29:10.783Z,97153.99
2019-01-29T16:32:00.726Z,97139.00
2019-01-29T16:34:29.054Z,97149.20
2019-01-29T16:36:59.668Z,97131.94
2019-01-29T16:39:27.684Z,97131.94
2019-01-29T16:42:17.644Z,97141.74
2019-01-29T16:44:45.995Z,97141.74
2019-01-29T16:47:16.600Z,97139.94
2019-01-29T16:49:44.606Z,97129.31
2019-01-29T16:52:33.897Z,97129.31
2019-01-29T16:55:03.877Z,97121.63
2019-01-29T16:57:36.787Z,97121.63
2019-01-29T17:00:11.652Z,97110.36
2019-01-29T17:02:44.767Z,97117.45
2019-01-29T17:05:13.471Z,97117.45
2019-01-29T17:07:42.451Z,97112.65
2019-01-29T17:10:12.983Z,97110.13
2019-01-29T17:12:42.964Z,97110.13
2019-01-29T17:15:16.646Z,97097.39
2019-01-29T17:17:44.064Z,97087.31
2019-01-29T17:20:22.676Z,97087.31
2019-01-29T17:22:50.937Z,97090.30
2019-01-29T17:37:45.456Z,97062.71
2019-01-29T17:40:14.988Z,97046.41
2019-01-29T17:42:44.360Z,97038.45
2019-01-29T17:45:18.716Z,97038.45
2019-01-29T17:47:48.838Z,97041.49
2019-01-29T17:50:19.833Z,97021.09
2019-01-29T17:52:51.079Z,97029.98
2019-01-29T17:55:23.177Z,97025.62
2019-01-29T17:57:55.684Z,97025.62
2019-01-29T18:00:30.885Z,97009.88
2019-01-29T18:03:00.537Z,97018.77
2019-01-29T18:05:30.128Z,97016.90
2019-01-29T18:08:00.362Z,97016.90
2019-01-29T18:10:28.755Z,97015.80
2019-01-29T18:12:59.226Z,97017.77
2019-01-29T18:15:28.553Z,97014.60
2019-01-29T18:17:58.316Z,97014.60
2019-01-29T18:20:25.611Z,97012.44
2019-01-29T18:22:53.142Z,97003.45
2019-01-29T18:25:22.762Z,96998.86
2019-01-29T18:28:00.618Z,96998.86
2019-01-29T18:30:25.026Z,96987.30
2019-01-29T18:32:52.576Z,96987.30
2019-01-29T18:35:23.350Z,96977.53
2019-01-29T18:37:52.014Z,96976.86
2019-01-29T18:40:27.205Z,96976.86
2019-01-29T18:42:54.850Z,96956.47
2019-01-29T18:45:23.742Z,96956.47
2019-01-29T18:47:52.512Z,96969.89
2019-01-29T18:50:21.408Z,96963.59
2019-01-29T18:52:50.278Z,96959.72
2019-01-29T18:59:15.715Z,96951.80
2019-01-29T19:13:53.004Z,96922.59
2019-01-29T19:16:23.916Z,96930.17
2019-01-29T19:18:52.763Z,96927.86
2019-01-29T19:21:25.374Z,96927.86
2019-01-29T19:26:38.585Z,96912.59
2019-01-29T19:29:07.691Z,96897.93
2019-01-29T19:31:37.634Z,96897.93
2019-01-29T19:34:05.986Z,96890.31
2019-01-29T19:36:35.785Z,96898.05
2019-01-29T19:39:08.183Z,96898.05
2019-01-29T19:41:37.358Z,96900.70
2019-01-29T19:44:05.961Z,96900.70
2019-01-29T19:46:35.840Z,96885.82
2019-01-29T19:49:04.863Z,96889.94
2019-01-29T19:51:35.972Z,96885.94
2019-01-29T19:54:05.821Z,96882.50
2019-01-29T19:56:35.989Z,96877.48
2019-01-29T19:59:07.468Z,96870.81
2019-01-29T20:01:36.842Z,96858.80
2019-01-29T20:04:05.717Z,96853.16
2019-01-29T20:06:35.688Z,96856.62
2019-01-29T20:09:10.824Z,96856.62
2019-01-29T20:11:41.042Z,96853.01
2019-01-29T20:14:10.552Z,96843.68
2019-01-29T20:16:40.943Z,96843.68
2019-01-29T20:19:10.394Z,96838.27
2019-01-29T20:21:39.661Z,96823.97
2019-01-29T20:24:08.357Z,96833.02
2019-01-29T20:26:37.700Z,96833.02
2019-01-29T20:29:06.756Z,96815.25
2019-01-29T20:31:36.955Z,96835.73
2019-01-29T20:34:05.764Z,96828.27
2019-01-29T20:36:35.066Z,96828.27
2019-01-29T20:39:05.106Z,96814.84
2019-01-29T20:41:34.266Z,96831.73
2019-01-29T20:44:02.761Z,96821.98
2019-01-29T20:46:31.743Z,96826.41
2019-01-29T20:48:59.939Z,96821.61
2019-01-29T20:51:30.018Z,96809.70
2019-01-29T20:54:00.292Z,96806.68
2019-01-29T20:56:28.676Z,96806.68
2019-01-29T20:58:59.387Z,96780.34
2019-01-29T21:01:27.884Z,96775.34
2019-01-29T21:07:53.343Z,96766.17
2019-01-29T21:10:24.584Z,96772.62
2019-01-29T21:13:11.799Z,96772.62
2019-01-29T21:15:41.754Z,96767.83
2019-01-29T21:18:12.775Z,96764.94
2019-01-29T21:20:41.714Z,96759.51
2019-01-29T21:23:30.295Z,96762.58
2019-01-29T21:25:58.914Z,96752.84
2019-01-29T21:28:29.875Z,96745.00
2019-01-29T21:30:59.368Z,96725.08
2019-01-29T21:33:28.878Z,96725.08
2019-01-29T21:35:57.154Z,96718.20
2019-01-29T21:38:25.905Z,96720.16
2019-01-29T21:40:55.875Z,96720.16
2019-01-29T21:43:24.651Z,96708.78
2019-01-29T21:45:54.758Z,96708.78
2019-01-29T21:49:57.538Z,96693.51
2019-01-29T21:52:27.638Z,96693.51
2019-01-29T21:54:57.068Z,96700.39
2019-01-29T21:57:25.780Z,96686.13
2019-01-29T21:59:55.988Z,96686.13
2019-01-29T22:02:25.360Z,96682.45
2019-01-29T22:04:55.729Z,96676.09
2019-01-29T22:07:25.741Z,96676.48
2019-01-29T22:12:20.658Z,96671.48
2019-01-29T22:14:50.017Z,96671.48
